createdAt,value
2022-09-23T00:04:57.791Z,100900.41
2022-09-23T00:10:00.794Z,100900.88
2022-09-23T00:15:04.878Z,100898.95
2022-09-23T00:20:09.709Z,100900.55
2022-09-23T00:25:13.184Z,100894.83
2022-09-23T00:30:16.084Z,100896.30
2022-09-23T00:35:20.573Z,100895.10
2022-09-23T00:40:23.756Z,100891.46
2022-09-23T00:45:26.836Z,100890.60
2022-09-23T00:50:43.253Z,100887.57
2022-09-23T00:55:54.960Z,100895.99
2022-09-23T01:01:00.949Z,100894.71
2022-09-23T01:06:06.189Z,100890.64
2022-09-23T01:11:34.178Z,100886.85
2022-09-23T01:16:57.297Z,100885.80
2022-09-23T01:22:22.065Z,100874.83
2022-09-23T01:28:03.469Z,100869.49
2022-09-23T01:33:22.653Z,100868.94
2022-09-23T01:38:34.873Z,100871.90
2022-09-23T01:43:48.932Z,100876.43
2022-09-23T01:48:56.648Z,100879.27
2022-09-23T01:54:06.510Z,100868.55
2022-09-23T01:59:15.250Z,100869.30
2022-09-23T02:04:26.035Z,100872.20
2022-09-23T02:09:36.716Z,100877.14
2022-09-23T02:15:03.626Z,100873.63
2022-09-23T02:20:08.465Z,100873.23
2022-09-23T02:25:12.904Z,100873.66
2022-09-23T02:30:19.451Z,100870.59
2022-09-23T02:35:33.289Z,100871.97
2022-09-23T02:40:38.761Z,100863.42
2022-09-23T02:45:42.004Z,100866.04
2022-09-23T02:50:47.923Z,100867.20
2022-09-23T02:55:51.361Z,100863.09
2022-09-23T03:01:08.034Z,100857.58
2022-09-23T03:06:39.838Z,100853.39
2022-09-23T03:11:49.522Z,100853.25
2022-09-23T03:17:16.182Z,100853.80
2022-09-23T03:22:29.117Z,100854.94
2022-09-23T03:27:35.084Z,100849.75
2022-09-23T03:32:39.635Z,100845.83
2022-09-23T03:38:08.742Z,100845.45
2022-09-23T03:43:13.690Z,100845.66
2022-09-23T03:48:17.002Z,100848.88
2022-09-23T03:53:21.541Z,100851.90
2022-09-23T03:58:24.647Z,100844.14
2022-09-23T04:03:29.596Z,100844.47
2022-09-23T04:08:32.802Z,100842.74
2022-09-23T04:13:36.010Z,100837.70
2022-09-23T04:18:39.071Z,100839.88
2022-09-23T04:23:42.540Z,100834.17
2022-09-23T04:28:45.744Z,100837.86
2022-09-23T04:33:48.948Z,100836.60
2022-09-23T04:38:52.568Z,100834.73
2022-09-23T04:43:57.819Z,100830.14
2022-09-23T04:49:01.027Z,100824.98
2022-09-23T04:54:04.440Z,100827.69
2022-09-23T04:59:08.266Z,100826.98
2022-09-23T05:04:14.292Z,100822.06
2022-09-23T05:09:18.374Z,100822.44
2022-09-23T05:14:22.496Z,100816.46
2022-09-23T05:19:25.910Z,100821.08
2022-09-23T05:24:30.040Z,100818.95
2022-09-23T05:29:33.967Z,100810.27
2022-09-23T05:34:37.073Z,100820.27
2022-09-23T05:39:40.274Z,100829.50
2022-09-23T05:44:43.380Z,100834.21
2022-09-23T05:49:59.036Z,100831.80
2022-09-23T05:55:04.749Z,100834.31
2022-09-23T06:00:10.049Z,100835.06
2022-09-23T06:05:14.342Z,100839.25
2022-09-23T06:10:17.646Z,100837.26
2022-09-23T06:15:22.081Z,100840.67
2022-09-23T06:20:25.914Z,100837.61
2022-09-23T06:25:29.119Z,100838.31
2022-09-23T06:30:32.325Z,100844.78
2022-09-23T06:35:36.453Z,100847.06
2022-09-23T06:40:39.709Z,100845.15
2022-09-23T06:45:42.999Z,100848.89
2022-09-23T06:50:46.491Z,100849.11
2022-09-23T06:55:58.544Z,100841.06
2022-09-23T07:01:05.147Z,100844.17
2022-09-23T07:06:08.457Z,100849.09
2022-09-23T07:11:13.594Z,100851.87
2022-09-23T07:16:17.686Z,100861.55
2022-09-23T07:21:21.440Z,100860.09
2022-09-23T07:26:25.676Z,100859.87
2022-09-23T07:31:38.771Z,100860.14
2022-09-23T07:36:43.693Z,100858.07
2022-09-23T07:41:46.867Z,100864.48
2022-09-23T07:46:50.190Z,100857.89
2022-09-23T07:51:53.672Z,100855.13
2022-09-23T07:56:57.161Z,100845.51
2022-09-23T08:02:00.400Z,100837.88
2022-09-23T08:07:05.837Z,100840.08
2022-09-23T08:12:15.766Z,100835.79
2022-09-23T08:17:19.735Z,100832.38
2022-09-23T08:22:23.140Z,100824.70
2022-09-23T08:27:28.412Z,100826.55
2022-09-23T08:32:32.015Z,100823.08
2022-09-23T08:37:35.021Z,100821.58
2022-09-23T08:42:41.801Z,100822.69
2022-09-23T08:48:13.148Z,100814.52
2022-09-23T08:53:30.618Z,100812.96
2022-09-23T08:58:56.661Z,100812.31
2022-09-23T09:04:36.734Z,100807.61
2022-09-23T09:09:45.370Z,100802.46
2022-09-23T09:14:57.588Z,100805.15
2022-09-23T09:20:19.710Z,100801.57
2022-09-23T09:25:40.771Z,100795.84
2022-09-23T09:30:48.543Z,100786.90
2022-09-23T09:36:36.438Z,100776.33
2022-09-23T09:41:45.932Z,100772.95
2022-09-23T09:47:18.592Z,100771.29
2022-09-23T09:52:29.984Z,100775.41
2022-09-23T09:57:38.953Z,100774.07
2022-09-23T10:02:42.598Z,100775.04
2022-09-23T10:07:45.802Z,100776.84
2022-09-23T10:12:49.524Z,100766.76
2022-09-23T10:17:52.934Z,100756.21
2022-09-23T10:22:57.061Z,100750.43
2022-09-23T10:28:38.570Z,100749.34
2022-09-23T10:33:50.174Z,100745.58
2022-09-23T10:39:18.268Z,100743.66
2022-09-23T10:44:53.531Z,100742.89
2022-09-23T10:50:07.758Z,100737.79
2022-09-23T10:55:29.048Z,100733.69
2022-09-23T11:00:52.285Z,100732.37
2022-09-23T11:06:26.609Z,100734.88
2022-09-23T11:12:16.563Z,100730.82
2022-09-23T11:17:54.796Z,100732.45
2022-09-23T11:23:20.966Z,100733.45
2022-09-23T11:28:58.058Z,100728.77
2022-09-23T11:34:31.674Z,100727.66
2022-09-23T11:39:50.863Z,100722.90
2022-09-23T11:45:00.507Z,100717.27
2022-09-23T11:50:13.134Z,100718.15
2022-09-23T11:55:23.319Z,100720.48
2022-09-23T12:00:34.926Z,100719.52
2022-09-23T12:05:45.440Z,100719.19
2022-09-23T12:11:16.767Z,100715.71
2022-09-23T12:16:43.292Z,100713.29
2022-09-23T12:22:27.630Z,100706.06
2022-09-23T12:27:38.550Z,100698.48
2022-09-23T12:32:42.818Z,100692.29
2022-09-23T12:37:46.123Z,100693.96
2022-09-23T12:42:50.446Z,100692.73
2022-09-23T12:47:53.773Z,100693.73
2022-09-23T12:52:57.468Z,100694.72
2022-09-23T12:58:01.312Z,100687.69
2022-09-23T13:03:23.158Z,100684.85
2022-09-23T13:08:26.776Z,100678.94
2022-09-23T13:13:35.515Z,100678.50
2022-09-23T13:18:55.110Z,100676.90
2022-09-23T13:24:13.605Z,100670.07
2022-09-23T13:29:33.574Z,100661.77
2022-09-23T13:34:40.567Z,100660.70
2022-09-23T13:39:44.496Z,100654.33
2022-09-23T13:44:48.733Z,100651.98
2022-09-23T13:49:54.029Z,100645.02
2022-09-23T13:54:57.790Z,100643.49
2022-09-23T14:00:21.334Z,100635.76
2022-09-23T14:05:27.469Z,100633.40
2022-09-23T14:10:32.424Z,100631.62
2022-09-23T14:15:37.785Z,100619.55
2022-09-23T14:20:51.199Z,100614.52
2022-09-23T14:25:55.768Z,100607.08
2022-09-23T14:30:59.180Z,100597.88
2022-09-23T14:36:09.239Z,100602.18
2022-09-23T14:41:35.637Z,100597.55
2022-09-23T14:46:40.447Z,100594.63
2022-09-23T14:51:47.522Z,100591.52
2022-09-23T14:56:51.168Z,100590.02
2022-09-23T15:01:54.687Z,100589.83
2022-09-23T15:06:59.526Z,100591.25
2022-09-23T15:12:07.245Z,100585.53
2022-09-23T15:17:25.758Z,100584.96
2022-09-23T15:22:29.742Z,100581.13
2022-09-23T15:27:35.404Z,100576.11
2022-09-23T15:32:39.943Z,100567.30
2022-09-23T15:37:45.082Z,100566.83
2022-09-23T15:42:51.787Z,100565.34
2022-09-23T15:47:56.273Z,100561.23
2022-09-23T15:53:00.148Z,100559.63
2022-09-23T15:58:03.457Z,100561.73
2022-09-23T16:03:06.974Z,100561.05
2022-09-23T16:08:10.799Z,100559.85
2022-09-23T16:13:15.693Z,100556.56
2022-09-23T16:18:19.885Z,100558.14
2022-09-23T16:23:39.088Z,100556.67
2022-09-23T16:28:43.716Z,100550.40
2022-09-23T16:33:49.164Z,100550.56
2022-09-23T16:38:56.670Z,100557.19
2022-09-23T16:44:02.778Z,100558.56
2022-09-23T16:49:06.851Z,100561.26
2022-09-23T16:54:12.968Z,100562.02
2022-09-23T16:59:17.714Z,100555.70
2022-09-23T17:04:23.559Z,100550.56
2022-09-23T17:09:29.267Z,100546.65
2022-09-23T17:14:34.864Z,100547.45
2022-09-23T17:19:42.043Z,100538.48
2022-09-23T17:24:46.125Z,100535.30
2022-09-23T17:29:50.362Z,100536.41
2022-09-23T17:34:55.007Z,100537.27
2022-09-23T17:40:00.069Z,100540.42
2022-09-23T17:50:32.757Z,100541.14
2022-09-23T17:55:38.537Z,100542.05
2022-09-23T18:00:48.073Z,100544.05
2022-09-23T18:05:54.095Z,100542.36
2022-09-23T18:10:59.647Z,100537.70
2022-09-23T18:16:05.383Z,100541.79
2022-09-23T18:21:10.954Z,100536.92
2022-09-23T18:26:18.455Z,100537.34
2022-09-23T18:31:24.407Z,100543.73
2022-09-23T18:36:29.744Z,100547.61
2022-09-23T18:41:36.222Z,100544.09
2022-09-23T18:46:41.560Z,100544.50
2022-09-23T18:51:57.461Z,100543.26
2022-09-23T18:57:07.817Z,100538.73
2022-09-23T19:02:13.344Z,100537.42
2022-09-23T19:07:17.745Z,100539.30
2022-09-23T19:12:23.229Z,100539.28
2022-09-23T19:17:26.609Z,100539.69
2022-09-23T19:22:32.984Z,100541.50
2022-09-23T19:27:43.018Z,100541.41
2022-09-23T19:32:46.844Z,100540.25
2022-09-23T19:37:52.244Z,100544.32
2022-09-23T19:42:57.111Z,100554.16
2022-09-23T19:48:05.500Z,100553.09
2022-09-23T19:53:09.452Z,100549.04
2022-09-23T19:58:14.242Z,100547.85
2022-09-23T20:03:18.504Z,100541.58
2022-09-23T20:08:21.748Z,100539.77
2022-09-23T20:13:24.700Z,100533.52
2022-09-23T20:18:27.846Z,100526.67
2022-09-23T20:23:31.381Z,100519.85
2022-09-23T20:28:34.498Z,100521.35
2022-09-23T20:33:38.790Z,100516.73
2022-09-23T20:38:42.114Z,100518.77
2022-09-23T20:43:45.320Z,100517.25
2022-09-23T20:48:48.628Z,100520.04
2022-09-23T20:53:53.128Z,100517.37
2022-09-23T20:59:00.722Z,100520.54
2022-09-23T21:04:06.109Z,100523.80
2022-09-23T21:09:09.296Z,100518.52
2022-09-23T21:14:13.040Z,100520.94
2022-09-23T21:19:17.246Z,100518.20
2022-09-23T21:29:44.605Z,100522.96
2022-09-23T21:34:48.631Z,100523.24
2022-09-23T21:40:11.057Z,100518.63
2022-09-23T21:45:15.013Z,100517.59
2022-09-23T21:50:18.629Z,100516.77
2022-09-23T21:55:22.054Z,100517.63
2022-09-23T22:00:25.897Z,100515.94
2022-09-23T22:05:29.280Z,100514.77
2022-09-23T22:10:32.386Z,100508.71
2022-09-23T22:15:37.159Z,100513.50
2022-09-23T22:20:41.669Z,100515.73
2022-09-23T22:25:45.085Z,100513.88
2022-09-23T22:31:07.297Z,100516.83
2022-09-23T22:36:11.773Z,100515.27
2022-09-23T22:41:15.464Z,100512.73
2022-09-23T22:46:22.331Z,100511.01
2022-09-23T22:51:25.804Z,100509.41
2022-09-23T22:56:29.019Z,100506.52
2022-09-23T23:01:35.892Z,100505.43
2022-09-23T23:06:39.932Z,100499.70
2022-09-23T23:11:44.217Z,100493.98
2022-09-23T23:16:48.035Z,100494.66
2022-09-23T23:21:51.342Z,100490.98
2022-09-23T23:26:54.403Z,100489.82
2022-09-23T23:31:57.875Z,100490.07
2022-09-23T23:37:01.228Z,100492.08
2022-09-23T23:42:05.102Z,100487.84
2022-09-23T23:47:08.188Z,100483.85
2022-09-23T23:52:12.567Z,100487.14
2022-09-23T23:57:15.674Z,100483.30
